sensor_id;sensor_type;location;lat;lon;timestamp;P1;durP1;ratioP1;P2;durP2;ratioP2
37051;SDS011;22964;52.272;13.356;2024-01-11T00:01:37;57.38;;;23.13;;
37051;SDS011;22964;52.272;13.356;2024-01-11T00:04:02;51.47;;;21.75;;
37051;SDS011;22964;52.272;13.356;2024-01-11T00:06:28;50.75;;;21.25;;
37051;SDS011;22964;52.272;13.356;2024-01-11T00:08:54;54.47;;;21.38;;
37051;SDS011;22964;52.272;13.356;2024-01-11T00:11:20;57.97;;;21.38;;
37051;SDS011;22964;52.272;13.356;2024-01-11T00:13:45;50.85;;;19.70;;
37051;SDS011;22964;52.272;13.356;2024-01-11T00:16:11;52.70;;;20.85;;
37051;SDS011;22964;52.272;13.356;2024-01-11T00:18:37;54.97;;;21.40;;
37051;SDS011;22964;52.272;13.356;2024-01-11T00:21:02;50.45;;;20.15;;
37051;SDS011;22964;52.272;13.356;2024-01-11T00:23:28;55.22;;;20.92;;
37051;SDS011;22964;52.272;13.356;2024-01-11T00:25:54;51.30;;;19.80;;
37051;SDS011;22964;52.272;13.356;2024-01-11T00:28:19;51.10;;;20.05;;
37051;SDS011;22964;52.272;13.356;2024-01-11T00:30:45;52.75;;;20.73;;
37051;SDS011;22964;52.272;13.356;2024-01-11T00:33:11;48.70;;;19.27;;
37051;SDS011;22964;52.272;13.356;2024-01-11T00:35:36;55.53;;;20.67;;
37051;SDS011;22964;52.272;13.356;2024-01-11T00:38:02;51.58;;;21.30;;
37051;SDS011;22964;52.272;13.356;2024-01-11T00:40:28;55.20;;;19.70;;
37051;SDS011;22964;52.272;13.356;2024-01-11T00:42:54;51.22;;;20.00;;
37051;SDS011;22964;52.272;13.356;2024-01-11T00:45:19;57.50;;;22.20;;
37051;SDS011;22964;52.272;13.356;2024-01-11T00:47:45;50.03;;;20.55;;
37051;SDS011;22964;52.272;13.356;2024-01-11T00:50:11;47.25;;;19.58;;
37051;SDS011;22964;52.272;13.356;2024-01-11T00:52:36;50.28;;;19.75;;
37051;SDS011;22964;52.272;13.356;2024-01-11T00:55:03;56.40;;;20.90;;
37051;SDS011;22964;52.272;13.356;2024-01-11T00:57:29;55.05;;;20.55;;
37051;SDS011;22964;52.272;13.356;2024-01-11T00:59:55;45.53;;;19.65;;
37051;SDS011;22964;52.272;13.356;2024-01-11T01:02:21;52.90;;;21.08;;
37051;SDS011;22964;52.272;13.356;2024-01-11T01:04:46;47.90;;;19.85;;
37051;SDS011;22964;52.272;13.356;2024-01-11T01:07:12;55.00;;;20.38;;
37051;SDS011;22964;52.272;13.356;2024-01-11T01:09:38;54.03;;;20.67;;
37051;SDS011;22964;52.272;13.356;2024-01-11T01:12:04;50.55;;;19.70;;
37051;SDS011;22964;52.272;13.356;2024-01-11T01:14:30;48.05;;;19.65;;
37051;SDS011;22964;52.272;13.356;2024-01-11T01:16:56;49.22;;;18.98;;
37051;SDS011;22964;52.272;13.356;2024-01-11T01:19:21;50.58;;;19.30;;
37051;SDS011;22964;52.272;13.356;2024-01-11T01:21:47;50.25;;;19.10;;
37051;SDS011;22964;52.272;13.356;2024-01-11T01:24:13;50.17;;;18.80;;
37051;SDS011;22964;52.272;13.356;2024-01-11T01:26:38;54.10;;;20.20;;
37051;SDS011;22964;52.272;13.356;2024-01-11T01:29:04;46.92;;;19.38;;
37051;SDS011;22964;52.272;13.356;2024-01-11T01:31:30;54.28;;;21.10;;
37051;SDS011;22964;52.272;13.356;2024-01-11T01:34:02;50.83;;;19.65;;
37051;SDS011;22964;52.272;13.356;2024-01-11T01:36:28;50.72;;;19.10;;
37051;SDS011;22964;52.272;13.356;2024-01-11T01:38:54;47.30;;;19.55;;
37051;SDS011;22964;52.272;13.356;2024-01-11T01:41:20;49.38;;;19.17;;
37051;SDS011;22964;52.272;13.356;2024-01-11T01:43:45;48.90;;;18.67;;
37051;SDS011;22964;52.272;13.356;2024-01-11T01:46:11;50.08;;;19.00;;
37051;SDS011;22964;52.272;13.356;2024-01-11T01:48:44;49.25;;;19.75;;
37051;SDS011;22964;52.272;13.356;2024-01-11T01:51:10;48.08;;;17.92;;
37051;SDS011;22964;52.272;13.356;2024-01-11T01:53:36;43.67;;;18.23;;
37051;SDS011;22964;52.272;13.356;2024-01-11T01:56:01;44.13;;;17.77;;
37051;SDS011;22964;52.272;13.356;2024-01-11T01:58:28;46.80;;;18.08;;
37051;SDS011;22964;52.272;13.356;2024-01-11T02:00:54;41.90;;;16.83;;
37051;SDS011;22964;52.272;13.356;2024-01-11T02:03:20;40.03;;;16.30;;
37051;SDS011;22964;52.272;13.356;2024-01-11T02:05:46;41.85;;;17.15;;
37051;SDS011;22964;52.272;13.356;2024-01-11T02:08:15;44.63;;;17.58;;
37051;SDS011;22964;52.272;13.356;2024-01-11T02:10:44;40.85;;;16.65;;
37051;SDS011;22964;52.272;13.356;2024-01-11T02:13:11;44.35;;;17.08;;
37051;SDS011;22964;52.272;13.356;2024-01-11T02:15:38;41.42;;;17.30;;
37051;SDS011;22964;52.272;13.356;2024-01-11T02:18:04;41.22;;;16.35;;
37051;SDS011;22964;52.272;13.356;2024-01-11T02:20:30;42.72;;;16.50;;
37051;SDS011;22964;52.272;13.356;2024-01-11T02:22:58;39.63;;;15.48;;
37051;SDS011;22964;52.272;13.356;2024-01-11T02:25:27;43.55;;;15.98;;
37051;SDS011;22964;52.272;13.356;2024-01-11T02:27:53;37.78;;;15.07;;
37051;SDS011;22964;52.272;13.356;2024-01-11T02:30:18;39.95;;;16.63;;
37051;SDS011;22964;52.272;13.356;2024-01-11T02:32:45;36.35;;;16.10;;
37051;SDS011;22964;52.272;13.356;2024-01-11T02:35:12;39.15;;;17.88;;
37051;SDS011;22964;52.272;13.356;2024-01-11T02:37:39;40.70;;;16.27;;
37051;SDS011;22964;52.272;13.356;2024-01-11T02:40:08;38.38;;;16.40;;
37051;SDS011;22964;52.272;13.356;2024-01-11T02:42:35;39.80;;;15.90;;
37051;SDS011;22964;52.272;13.356;2024-01-11T02:45:04;42.13;;;16.85;;
37051;SDS011;22964;52.272;13.356;2024-01-11T02:47:30;37.72;;;16.33;;
37051;SDS011;22964;52.272;13.356;2024-01-11T02:49:56;38.15;;;15.02;;
37051;SDS011;22964;52.272;13.356;2024-01-11T02:52:22;41.72;;;15.82;;
37051;SDS011;22964;52.272;13.356;2024-01-11T02:54:48;40.50;;;15.60;;
37051;SDS011;22964;52.272;13.356;2024-01-11T02:57:14;41.70;;;15.38;;
37051;SDS011;22964;52.272;13.356;2024-01-11T02:59:40;30.00;;;13.07;;
37051;SDS011;22964;52.272;13.356;2024-01-11T03:02:05;28.95;;;12.43;;
37051;SDS011;22964;52.272;13.356;2024-01-11T03:04:31;30.40;;;11.43;;
37051;SDS011;22964;52.272;13.356;2024-01-11T03:06:57;22.13;;;10.70;;
37051;SDS011;22964;52.272;13.356;2024-01-11T03:09:23;21.05;;;8.63;;
37051;SDS011;22964;52.272;13.356;2024-01-11T03:11:48;20.38;;;8.43;;
37051;SDS011;22964;52.272;13.356;2024-01-11T03:14:14;18.77;;;7.53;;
37051;SDS011;22964;52.272;13.356;2024-01-11T03:16:40;14.43;;;7.13;;
37051;SDS011;22964;52.272;13.356;2024-01-11T03:19:06;19.90;;;7.22;;
37051;SDS011;22964;52.272;13.356;2024-01-11T03:21:32;15.95;;;7.38;;
37051;SDS011;22964;52.272;13.356;2024-01-11T03:23:58;18.10;;;7.00;;
37051;SDS011;22964;52.272;13.356;2024-01-11T03:26:24;16.20;;;7.55;;
37051;SDS011;22964;52.272;13.356;2024-01-11T03:28:50;17.38;;;7.78;;
37051;SDS011;22964;52.272;13.356;2024-01-11T03:31:16;17.00;;;7.35;;
37051;SDS011;22964;52.272;13.356;2024-01-11T03:33:42;17.17;;;7.35;;
37051;SDS011;22964;52.272;13.356;2024-01-11T03:36:08;15.15;;;6.88;;
37051;SDS011;22964;52.272;13.356;2024-01-11T03:38:37;17.17;;;7.75;;
37051;SDS011;22964;52.272;13.356;2024-01-11T03:41:09;17.05;;;7.30;;
37051;SDS011;22964;52.272;13.356;2024-01-11T03:43:36;18.05;;;7.63;;
37051;SDS011;22964;52.272;13.356;2024-01-11T03:46:02;14.55;;;6.50;;
37051;SDS011;22964;52.272;13.356;2024-01-11T03:48:28;16.33;;;7.15;;
37051;SDS011;22964;52.272;13.356;2024-01-11T03:50:54;19.45;;;7.93;;
37051;SDS011;22964;52.272;13.356;2024-01-11T03:53:20;15.57;;;6.82;;
37051;SDS011;22964;52.272;13.356;2024-01-11T03:55:46;16.02;;;7.30;;
37051;SDS011;22964;52.272;13.356;2024-01-11T03:58:11;15.48;;;6.63;;
37051;SDS011;22964;52.272;13.356;2024-01-11T04:00:37;18.88;;;7.45;;
37051;SDS011;22964;52.272;13.356;2024-01-11T04:03:03;19.77;;;8.00;;
37051;SDS011;22964;52.272;13.356;2024-01-11T04:05:29;18.13;;;8.60;;
37051;SDS011;22964;52.272;13.356;2024-01-11T04:07:54;21.63;;;9.50;;
37051;SDS011;22964;52.272;13.356;2024-01-11T04:10:20;21.30;;;9.10;;
37051;SDS011;22964;52.272;13.356;2024-01-11T04:12:46;21.60;;;8.73;;
37051;SDS011;22964;52.272;13.356;2024-01-11T04:15:11;20.85;;;9.10;;
37051;SDS011;22964;52.272;13.356;2024-01-11T04:17:38;21.88;;;9.93;;
37051;SDS011;22964;52.272;13.356;2024-01-11T04:20:05;22.52;;;9.95;;
37051;SDS011;22964;52.272;13.356;2024-01-11T04:22:31;23.50;;;9.77;;
37051;SDS011;22964;52.272;13.356;2024-01-11T04:24:57;24.13;;;9.18;;
37051;SDS011;22964;52.272;13.356;2024-01-11T04:27:23;20.15;;;9.95;;
37051;SDS011;22964;52.272;13.356;2024-01-11T04:29:49;22.15;;;9.75;;
37051;SDS011;22964;52.272;13.356;2024-01-11T04:32:14;20.85;;;9.55;;
37051;SDS011;22964;52.272;13.356;2024-01-11T04:34:40;20.13;;;9.00;;
37051;SDS011;22964;52.272;13.356;2024-01-11T04:37:06;20.63;;;9.43;;
37051;SDS011;22964;52.272;13.356;2024-01-11T04:39:32;21.20;;;10.27;;
37051;SDS011;22964;52.272;13.356;2024-01-11T04:41:58;21.25;;;9.73;;
37051;SDS011;22964;52.272;13.356;2024-01-11T04:44:25;22.95;;;9.43;;
37051;SDS011;22964;52.272;13.356;2024-01-11T04:46:51;22.58;;;9.82;;
37051;SDS011;22964;52.272;13.356;2024-01-11T04:49:17;21.75;;;9.32;;
37051;SDS011;22964;52.272;13.356;2024-01-11T04:51:42;21.23;;;9.68;;
37051;SDS011;22964;52.272;13.356;2024-01-11T04:54:08;25.08;;;9.73;;
37051;SDS011;22964;52.272;13.356;2024-01-11T04:56:34;23.65;;;9.57;;
37051;SDS011;22964;52.272;13.356;2024-01-11T04:59:00;24.92;;;10.88;;
37051;SDS011;22964;52.272;13.356;2024-01-11T05:01:25;22.92;;;9.85;;
37051;SDS011;22964;52.272;13.356;2024-01-11T05:03:51;22.75;;;9.30;;
37051;SDS011;22964;52.272;13.356;2024-01-11T05:06:17;21.50;;;9.77;;
37051;SDS011;22964;52.272;13.356;2024-01-11T05:08:44;20.17;;;8.88;;
37051;SDS011;22964;52.272;13.356;2024-01-11T05:11:18;20.00;;;10.38;;
37051;SDS011;22964;52.272;13.356;2024-01-11T05:13:45;20.88;;;10.55;;
37051;SDS011;22964;52.272;13.356;2024-01-11T05:18:45;22.55;;;10.65;;
37051;SDS011;22964;52.272;13.356;2024-01-11T05:21:11;25.48;;;9.98;;
37051;SDS011;22964;52.272;13.356;2024-01-11T05:23:37;21.85;;;10.13;;
37051;SDS011;22964;52.272;13.356;2024-01-11T05:26:03;22.20;;;9.45;;
37051;SDS011;22964;52.272;13.356;2024-01-11T05:28:29;23.30;;;9.88;;
37051;SDS011;22964;52.272;13.356;2024-01-11T05:30:54;23.60;;;9.52;;
37051;SDS011;22964;52.272;13.356;2024-01-11T05:33:20;23.27;;;9.35;;
37051;SDS011;22964;52.272;13.356;2024-01-11T05:35:46;20.90;;;9.23;;
37051;SDS011;22964;52.272;13.356;2024-01-11T05:38:11;21.88;;;9.52;;
37051;SDS011;22964;52.272;13.356;2024-01-11T05:40:37;22.05;;;9.10;;
37051;SDS011;22964;52.272;13.356;2024-01-11T05:43:03;21.25;;;9.93;;
37051;SDS011;22964;52.272;13.356;2024-01-11T05:45:29;23.00;;;9.80;;
37051;SDS011;22964;52.272;13.356;2024-01-11T05:47:54;22.63;;;9.25;;
37051;SDS011;22964;52.272;13.356;2024-01-11T05:50:20;23.25;;;9.77;;
37051;SDS011;22964;52.272;13.356;2024-01-11T05:52:46;20.35;;;9.38;;
37051;SDS011;22964;52.272;13.356;2024-01-11T05:55:11;22.83;;;9.50;;
37051;SDS011;22964;52.272;13.356;2024-01-11T05:57:37;19.98;;;9.85;;
37051;SDS011;22964;52.272;13.356;2024-01-11T06:00:03;22.70;;;9.07;;
37051;SDS011;22964;52.272;13.356;2024-01-11T06:02:31;23.73;;;9.65;;
37051;SDS011;22964;52.272;13.356;2024-01-11T06:04:57;19.50;;;8.38;;
37051;SDS011;22964;52.272;13.356;2024-01-11T06:07:23;24.08;;;9.43;;
37051;SDS011;22964;52.272;13.356;2024-01-11T06:09:48;22.05;;;9.20;;
37051;SDS011;22964;52.272;13.356;2024-01-11T06:12:14;19.48;;;9.18;;
37051;SDS011;22964;52.272;13.356;2024-01-11T06:14:40;22.00;;;8.80;;
37051;SDS011;22964;52.272;13.356;2024-01-11T06:17:06;20.88;;;8.95;;
37051;SDS011;22964;52.272;13.356;2024-01-11T06:19:32;21.55;;;8.88;;
37051;SDS011;22964;52.272;13.356;2024-01-11T06:21:57;20.35;;;8.52;;
37051;SDS011;22964;52.272;13.356;2024-01-11T06:24:23;30.23;;;15.20;;
37051;SDS011;22964;52.272;13.356;2024-01-11T06:26:49;24.67;;;10.82;;
37051;SDS011;22964;52.272;13.356;2024-01-11T06:29:14;23.52;;;9.98;;
37051;SDS011;22964;52.272;13.356;2024-01-11T06:31:40;27.10;;;10.98;;
37051;SDS011;22964;52.272;13.356;2024-01-11T06:34:06;26.90;;;10.70;;
37051;SDS011;22964;52.272;13.356;2024-01-11T06:36:32;27.70;;;11.10;;
37051;SDS011;22964;52.272;13.356;2024-01-11T06:38:57;27.42;;;10.73;;
37051;SDS011;22964;52.272;13.356;2024-01-11T06:41:23;27.92;;;11.00;;
37051;SDS011;22964;52.272;13.356;2024-01-11T06:43:49;24.92;;;10.45;;
37051;SDS011;22964;52.272;13.356;2024-01-11T06:46:19;24.05;;;10.45;;
37051;SDS011;22964;52.272;13.356;2024-01-11T06:48:46;23.67;;;10.27;;
37051;SDS011;22964;52.272;13.356;2024-01-11T06:51:15;25.85;;;9.43;;
37051;SDS011;22964;52.272;13.356;2024-01-11T06:53:45;22.13;;;9.63;;
37051;SDS011;22964;52.272;13.356;2024-01-11T06:56:14;23.08;;;9.45;;
37051;SDS011;22964;52.272;13.356;2024-01-11T06:58:45;22.63;;;9.15;;
37051;SDS011;22964;52.272;13.356;2024-01-11T07:01:12;22.27;;;9.02;;
37051;SDS011;22964;52.272;13.356;2024-01-11T07:03:38;19.75;;;8.30;;
37051;SDS011;22964;52.272;13.356;2024-01-11T07:06:05;20.42;;;7.88;;
37051;SDS011;22964;52.272;13.356;2024-01-11T07:08:31;18.85;;;7.47;;
37051;SDS011;22964;52.272;13.356;2024-01-11T07:11:00;22.77;;;8.30;;
37051;SDS011;22964;52.272;13.356;2024-01-11T07:13:29;21.73;;;8.45;;
37051;SDS011;22964;52.272;13.356;2024-01-11T07:15:56;22.67;;;8.50;;
37051;SDS011;22964;52.272;13.356;2024-01-11T07:18:23;20.27;;;8.48;;
37051;SDS011;22964;52.272;13.356;2024-01-11T07:20:50;22.20;;;9.05;;
37051;SDS011;22964;52.272;13.356;2024-01-11T07:23:16;20.92;;;8.88;;
37051;SDS011;22964;52.272;13.356;2024-01-11T07:25:42;21.58;;;9.13;;
37051;SDS011;22964;52.272;13.356;2024-01-11T07:28:08;22.45;;;8.98;;
37051;SDS011;22964;52.272;13.356;2024-01-11T07:30:34;20.23;;;8.25;;
37051;SDS011;22964;52.272;13.356;2024-01-11T07:33:00;21.77;;;8.38;;
37051;SDS011;22964;52.272;13.356;2024-01-11T07:35:26;20.52;;;8.07;;
37051;SDS011;22964;52.272;13.356;2024-01-11T07:37:51;20.83;;;7.75;;
37051;SDS011;22964;52.272;13.356;2024-01-11T07:40:17;20.88;;;7.50;;
37051;SDS011;22964;52.272;13.356;2024-01-11T07:42:43;16.73;;;7.35;;
37051;SDS011;22964;52.272;13.356;2024-01-11T07:45:09;19.95;;;7.63;;
37051;SDS011;22964;52.272;13.356;2024-01-11T07:47:35;19.02;;;7.63;;
37051;SDS011;22964;52.272;13.356;2024-01-11T07:50:03;18.00;;;7.05;;
37051;SDS011;22964;52.272;13.356;2024-01-11T07:52:31;16.80;;;6.88;;
37051;SDS011;22964;52.272;13.356;2024-01-11T07:54:58;17.52;;;7.03;;
37051;SDS011;22964;52.272;13.356;2024-01-11T07:57:31;18.45;;;7.57;;
37051;SDS011;22964;52.272;13.356;2024-01-11T07:59:58;18.42;;;7.68;;
37051;SDS011;22964;52.272;13.356;2024-01-11T08:02:24;22.63;;;8.50;;
37051;SDS011;22964;52.272;13.356;2024-01-11T08:04:50;17.73;;;7.07;;
37051;SDS011;22964;52.272;13.356;2024-01-11T08:07:16;19.58;;;7.72;;
37051;SDS011;22964;52.272;13.356;2024-01-11T08:09:42;20.00;;;7.90;;
37051;SDS011;22964;52.272;13.356;2024-01-11T08:12:11;20.83;;;8.13;;
37051;SDS011;22964;52.272;13.356;2024-01-11T08:14:38;21.35;;;7.68;;
37051;SDS011;22964;52.272;13.356;2024-01-11T08:17:04;18.55;;;7.20;;
37051;SDS011;22964;52.272;13.356;2024-01-11T08:19:31;18.85;;;6.65;;
37051;SDS011;22964;52.272;13.356;2024-01-11T08:21:57;20.98;;;8.23;;
37051;SDS011;22964;52.272;13.356;2024-01-11T08:24:23;21.25;;;7.93;;
37051;SDS011;22964;52.272;13.356;2024-01-11T08:26:50;21.00;;;8.18;;
37051;SDS011;22964;52.272;13.356;2024-01-11T08:29:16;23.65;;;8.80;;
37051;SDS011;22964;52.272;13.356;2024-01-11T08:31:44;23.73;;;7.90;;
37051;SDS011;22964;52.272;13.356;2024-01-11T08:34:10;20.98;;;8.43;;
37051;SDS011;22964;52.272;13.356;2024-01-11T08:36:35;18.95;;;7.30;;
37051;SDS011;22964;52.272;13.356;2024-01-11T08:39:03;22.40;;;8.07;;
37051;SDS011;22964;52.272;13.356;2024-01-11T08:41:36;22.92;;;8.45;;
37051;SDS011;22964;52.272;13.356;2024-01-11T08:44:03;25.48;;;8.70;;
37051;SDS011;22964;52.272;13.356;2024-01-11T08:46:32;19.98;;;7.75;;
37051;SDS011;22964;52.272;13.356;2024-01-11T08:48:59;22.55;;;8.43;;
37051;SDS011;22964;52.272;13.356;2024-01-11T08:51:26;21.27;;;8.63;;
37051;SDS011;22964;52.272;13.356;2024-01-11T08:53:52;25.27;;;9.07;;
37051;SDS011;22964;52.272;13.356;2024-01-11T08:56:18;23.30;;;8.57;;
37051;SDS011;22964;52.272;13.356;2024-01-11T08:58:44;24.65;;;8.27;;
37051;SDS011;22964;52.272;13.356;2024-01-11T09:01:10;22.42;;;8.73;;
37051;SDS011;22964;52.272;13.356;2024-01-11T09:03:36;24.75;;;9.00;;
37051;SDS011;22964;52.272;13.356;2024-01-11T09:06:02;24.80;;;8.70;;
37051;SDS011;22964;52.272;13.356;2024-01-11T09:08:28;23.55;;;8.40;;
37051;SDS011;22964;52.272;13.356;2024-01-11T09:10:55;24.55;;;8.63;;
37051;SDS011;22964;52.272;13.356;2024-01-11T09:13:21;24.00;;;8.82;;
37051;SDS011;22964;52.272;13.356;2024-01-11T09:15:47;28.00;;;9.25;;
37051;SDS011;22964;52.272;13.356;2024-01-11T09:18:12;23.75;;;9.10;;
37051;SDS011;22964;52.272;13.356;2024-01-11T09:20:38;26.20;;;9.07;;
37051;SDS011;22964;52.272;13.356;2024-01-11T09:23:04;29.65;;;10.70;;
37051;SDS011;22964;52.272;13.356;2024-01-11T09:25:30;22.20;;;9.05;;
37051;SDS011;22964;52.272;13.356;2024-01-11T09:27:56;25.75;;;9.45;;
37051;SDS011;22964;52.272;13.356;2024-01-11T09:30:22;26.65;;;9.98;;
37051;SDS011;22964;52.272;13.356;2024-01-11T09:32:48;26.17;;;9.77;;
37051;SDS011;22964;52.272;13.356;2024-01-11T09:35:14;27.38;;;9.02;;
37051;SDS011;22964;52.272;13.356;2024-01-11T09:37:40;25.40;;;9.63;;
37051;SDS011;22964;52.272;13.356;2024-01-11T09:40:06;21.30;;;8.32;;
37051;SDS011;22964;52.272;13.356;2024-01-11T09:42:39;24.30;;;8.95;;
37051;SDS011;22964;52.272;13.356;2024-01-11T09:45:09;24.17;;;9.35;;
37051;SDS011;22964;52.272;13.356;2024-01-11T09:47:38;28.52;;;9.52;;
37051;SDS011;22964;52.272;13.356;2024-01-11T09:50:07;24.65;;;9.38;;
37051;SDS011;22964;52.272;13.356;2024-01-11T09:52:33;27.63;;;9.20;;
37051;SDS011;22964;52.272;13.356;2024-01-11T09:54:59;23.33;;;9.15;;
37051;SDS011;22964;52.272;13.356;2024-01-11T09:57:29;24.17;;;9.10;;
37051;SDS011;22964;52.272;13.356;2024-01-11T09:59:56;25.50;;;9.10;;
37051;SDS011;22964;52.272;13.356;2024-01-11T10:02:23;24.92;;;9.85;;
37051;SDS011;22964;52.272;13.356;2024-01-11T10:04:55;24.67;;;9.27;;
37051;SDS011;22964;52.272;13.356;2024-01-11T10:07:21;25.95;;;9.23;;
37051;SDS011;22964;52.272;13.356;2024-01-11T10:09:48;23.98;;;8.57;;
37051;SDS011;22964;52.272;13.356;2024-01-11T10:12:14;28.55;;;9.20;;
37051;SDS011;22964;52.272;13.356;2024-01-11T10:14:42;26.55;;;9.02;;
37051;SDS011;22964;52.272;13.356;2024-01-11T10:17:07;23.25;;;9.30;;
37051;SDS011;22964;52.272;13.356;2024-01-11T10:19:33;26.88;;;9.48;;
37051;SDS011;22964;52.272;13.356;2024-01-11T10:21:59;25.95;;;9.18;;
37051;SDS011;22964;52.272;13.356;2024-01-11T10:24:25;23.85;;;8.90;;
37051;SDS011;22964;52.272;13.356;2024-01-11T10:26:52;26.15;;;8.95;;
37051;SDS011;22964;52.272;13.356;2024-01-11T10:29:21;25.55;;;9.20;;
37051;SDS011;22964;52.272;13.356;2024-01-11T10:31:47;25.92;;;8.98;;
37051;SDS011;22964;52.272;13.356;2024-01-11T10:34:12;25.52;;;9.05;;
37051;SDS011;22964;52.272;13.356;2024-01-11T10:36:38;27.25;;;9.63;;
37051;SDS011;22964;52.272;13.356;2024-01-11T10:39:06;23.15;;;8.63;;
37051;SDS011;22964;52.272;13.356;2024-01-11T10:41:37;25.55;;;9.07;;
37051;SDS011;22964;52.272;13.356;2024-01-11T10:44:24;26.40;;;9.43;;
37051;SDS011;22964;52.272;13.356;2024-01-11T10:46:54;27.38;;;10.27;;
37051;SDS011;22964;52.272;13.356;2024-01-11T10:49:22;24.25;;;9.25;;
37051;SDS011;22964;52.272;13.356;2024-01-11T10:51:53;26.08;;;9.18;;
37051;SDS011;22964;52.272;13.356;2024-01-11T10:54:27;23.05;;;8.77;;
37051;SDS011;22964;52.272;13.356;2024-01-11T10:56:55;27.25;;;10.13;;
37051;SDS011;22964;52.272;13.356;2024-01-11T10:59:24;27.27;;;8.57;;
37051;SDS011;22964;52.272;13.356;2024-01-11T11:01:55;28.25;;;9.20;;
37051;SDS011;22964;52.272;13.356;2024-01-11T11:04:23;24.92;;;9.27;;
37051;SDS011;22964;52.272;13.356;2024-01-11T11:06:56;24.88;;;8.32;;
37051;SDS011;22964;52.272;13.356;2024-01-11T11:09:23;24.75;;;9.52;;
37051;SDS011;22964;52.272;13.356;2024-01-11T11:11:50;25.67;;;8.68;;
37051;SDS011;22964;52.272;13.356;2024-01-11T11:14:21;24.38;;;9.13;;
37051;SDS011;22964;52.272;13.356;2024-01-11T11:16:47;25.13;;;9.68;;
37051;SDS011;22964;52.272;13.356;2024-01-11T11:19:14;26.42;;;9.57;;
37051;SDS011;22964;52.272;13.356;2024-01-11T11:21:43;25.77;;;9.68;;
37051;SDS011;22964;52.272;13.356;2024-01-11T11:24:10;26.88;;;10.13;;
37051;SDS011;22964;52.272;13.356;2024-01-11T11:26:36;25.27;;;9.40;;
37051;SDS011;22964;52.272;13.356;2024-01-11T11:29:05;27.33;;;9.50;;
37051;SDS011;22964;52.272;13.356;2024-01-11T11:31:37;23.60;;;9.02;;
37051;SDS011;22964;52.272;13.356;2024-01-11T11:34:06;26.35;;;9.82;;
37051;SDS011;22964;52.272;13.356;2024-01-11T11:36:36;27.98;;;10.95;;
37051;SDS011;22964;52.272;13.356;2024-01-11T11:39:02;30.33;;;12.07;;
37051;SDS011;22964;52.272;13.356;2024-01-11T11:41:29;25.48;;;9.80;;
37051;SDS011;22964;52.272;13.356;2024-01-11T11:44:00;25.13;;;9.45;;
37051;SDS011;22964;52.272;13.356;2024-01-11T11:46:28;24.58;;;9.30;;
37051;SDS011;22964;52.272;13.356;2024-01-11T11:48:54;20.25;;;8.10;;
37051;SDS011;22964;52.272;13.356;2024-01-11T11:51:21;24.95;;;8.38;;
37051;SDS011;22964;52.272;13.356;2024-01-11T11:53:48;23.17;;;8.98;;
37051;SDS011;22964;52.272;13.356;2024-01-11T11:56:15;25.65;;;9.90;;
37051;SDS011;22964;52.272;13.356;2024-01-11T11:58:43;24.35;;;9.80;;
37051;SDS011;22964;52.272;13.356;2024-01-11T12:01:10;23.45;;;8.93;;
37051;SDS011;22964;52.272;13.356;2024-01-11T12:03:37;22.90;;;7.97;;
37051;SDS011;22964;52.272;13.356;2024-01-11T12:06:04;25.17;;;9.18;;
37051;SDS011;22964;52.272;13.356;2024-01-11T12:08:31;26.83;;;9.35;;
37051;SDS011;22964;52.272;13.356;2024-01-11T12:10:57;25.50;;;9.10;;
37051;SDS011;22964;52.272;13.356;2024-01-11T12:13:24;23.85;;;9.18;;
37051;SDS011;22964;52.272;13.356;2024-01-11T12:15:51;25.73;;;8.27;;
37051;SDS011;22964;52.272;13.356;2024-01-11T12:18:17;22.05;;;8.00;;
37051;SDS011;22964;52.272;13.356;2024-01-11T12:20:43;22.58;;;8.82;;
37051;SDS011;22964;52.272;13.356;2024-01-11T12:23:08;23.10;;;8.05;;
37051;SDS011;22964;52.272;13.356;2024-01-11T12:25:35;24.25;;;8.38;;
37051;SDS011;22964;52.272;13.356;2024-01-11T12:28:01;21.50;;;8.35;;
37051;SDS011;22964;52.272;13.356;2024-01-11T12:30:27;23.73;;;8.57;;
37051;SDS011;22964;52.272;13.356;2024-01-11T12:32:53;25.23;;;9.48;;
37051;SDS011;22964;52.272;13.356;2024-01-11T12:35:20;22.35;;;8.23;;
37051;SDS011;22964;52.272;13.356;2024-01-11T12:37:52;24.30;;;8.80;;
37051;SDS011;22964;52.272;13.356;2024-01-11T12:40:19;24.75;;;9.15;;
37051;SDS011;22964;52.272;13.356;2024-01-11T12:42:45;25.77;;;9.50;;
37051;SDS011;22964;52.272;13.356;2024-01-11T12:45:11;25.67;;;9.45;;
37051;SDS011;22964;52.272;13.356;2024-01-11T12:47:37;29.58;;;10.18;;
37051;SDS011;22964;52.272;13.356;2024-01-11T12:50:03;29.00;;;10.05;;
37051;SDS011;22964;52.272;13.356;2024-01-11T12:52:30;26.65;;;9.00;;
37051;SDS011;22964;52.272;13.356;2024-01-11T12:54:55;25.38;;;9.18;;
37051;SDS011;22964;52.272;13.356;2024-01-11T12:57:25;26.88;;;9.25;;
37051;SDS011;22964;52.272;13.356;2024-01-11T12:59:51;29.88;;;10.32;;
37051;SDS011;22964;52.272;13.356;2024-01-11T13:02:18;24.92;;;8.95;;
37051;SDS011;22964;52.272;13.356;2024-01-11T13:04:44;27.25;;;9.82;;
37051;SDS011;22964;52.272;13.356;2024-01-11T13:07:11;25.67;;;9.38;;
37051;SDS011;22964;52.272;13.356;2024-01-11T13:09:38;28.05;;;9.85;;
37051;SDS011;22964;52.272;13.356;2024-01-11T13:12:04;26.08;;;9.30;;
37051;SDS011;22964;52.272;13.356;2024-01-11T13:14:30;26.13;;;9.15;;
37051;SDS011;22964;52.272;13.356;2024-01-11T13:16:56;24.23;;;9.27;;
37051;SDS011;22964;52.272;13.356;2024-01-11T13:19:22;28.05;;;10.45;;
37051;SDS011;22964;52.272;13.356;2024-01-11T13:21:48;31.73;;;11.15;;
37051;SDS011;22964;52.272;13.356;2024-01-11T13:24:14;26.77;;;9.52;;
37051;SDS011;22964;52.272;13.356;2024-01-11T13:26:40;25.98;;;10.30;;
37051;SDS011;22964;52.272;13.356;2024-01-11T13:29:06;29.08;;;10.27;;
37051;SDS011;22964;52.272;13.356;2024-01-11T13:31:32;26.23;;;10.45;;
37051;SDS011;22964;52.272;13.356;2024-01-11T13:33:58;29.30;;;10.13;;
37051;SDS011;22964;52.272;13.356;2024-01-11T13:36:24;27.30;;;9.98;;
37051;SDS011;22964;52.272;13.356;2024-01-11T13:38:50;26.60;;;9.55;;
37051;SDS011;22964;52.272;13.356;2024-01-11T13:41:16;28.13;;;9.90;;
37051;SDS011;22964;52.272;13.356;2024-01-11T13:43:45;28.35;;;9.55;;
37051;SDS011;22964;52.272;13.356;2024-01-11T13:46:11;26.48;;;9.65;;
37051;SDS011;22964;52.272;13.356;2024-01-11T13:48:39;28.70;;;9.90;;
37051;SDS011;22964;52.272;13.356;2024-01-11T13:51:04;28.58;;;10.07;;
37051;SDS011;22964;52.272;13.356;2024-01-11T13:53:32;27.10;;;9.85;;
37051;SDS011;22964;52.272;13.356;2024-01-11T13:55:58;25.33;;;9.38;;
37051;SDS011;22964;52.272;13.356;2024-01-11T13:58:24;25.77;;;9.55;;
37051;SDS011;22964;52.272;13.356;2024-01-11T14:00:49;24.48;;;9.73;;
37051;SDS011;22964;52.272;13.356;2024-01-11T14:03:15;27.40;;;9.38;;
37051;SDS011;22964;52.272;13.356;2024-01-11T14:05:41;25.85;;;9.35;;
37051;SDS011;22964;52.272;13.356;2024-01-11T14:08:07;24.05;;;9.27;;
37051;SDS011;22964;52.272;13.356;2024-01-11T14:10:33;27.48;;;9.93;;
37051;SDS011;22964;52.272;13.356;2024-01-11T14:12:59;25.83;;;9.82;;
37051;SDS011;22964;52.272;13.356;2024-01-11T14:15:26;23.67;;;8.70;;
37051;SDS011;22964;52.272;13.356;2024-01-11T14:17:52;26.75;;;9.52;;